createdAt,value
2018-08-11T00:01:03.833Z,1.80
2018-08-11T00:03:34.850Z,1.95
2018-08-11T00:06:03.348Z,1.98
2018-08-11T00:08:31.837Z,2.25
2018-08-11T00:11:00.323Z,2.40
2018-08-11T00:13:28.815Z,2.15
2018-08-11T00:15:57.282Z,1.62
2018-08-11T00:18:25.770Z,1.80
2018-08-11T00:20:54.260Z,1.70
2018-08-11T00:23:22.753Z,1.92
2018-08-11T00:25:51.616Z,1.40
2018-08-11T00:28:20.594Z,1.42
2018-08-11T00:30:49.099Z,1.57
2018-08-11T00:33:17.584Z,2.17
2018-08-11T00:35:47.049Z,1.72
2018-08-11T00:38:15.534Z,2.15
2018-08-11T00:40:44.344Z,1.75
2018-08-11T00:43:12.816Z,1.90
2018-08-11T00:45:41.290Z,1.80
2018-08-11T00:50:52.632Z,1.65
2018-08-11T00:53:21.129Z,1.55
2018-08-11T00:55:49.603Z,1.47
2018-08-11T00:58:18.445Z,1.75
2018-08-11T01:00:46.924Z,2.33
2018-08-11T01:03:16.084Z,1.60
2018-08-11T01:05:45.224Z,2.10
2018-08-11T01:08:13.692Z,1.70
2018-08-11T01:10:42.188Z,1.47
2018-08-11T01:13:11.333Z,1.65
2018-08-11T01:15:39.809Z,1.40
2018-08-11T01:18:08.953Z,1.77
2018-08-11T01:20:37.459Z,1.87
2018-08-11T01:23:05.955Z,2.00
2018-08-11T01:25:34.781Z,1.60
2018-08-11T01:28:03.275Z,1.72
2018-08-11T01:30:31.781Z,1.40
2018-08-11T01:33:00.929Z,1.35
2018-08-11T01:35:29.742Z,1.98
2018-08-11T01:37:58.569Z,1.70
2018-08-11T01:40:27.041Z,1.95
2018-08-11T01:42:56.223Z,1.50
2018-08-11T01:45:25.062Z,1.77
2018-08-11T01:47:53.877Z,1.60
2018-08-11T01:50:22.345Z,1.40
2018-08-11T01:52:51.182Z,2.30
2018-08-11T01:55:19.709Z,1.87
2018-08-11T01:57:48.247Z,1.87
2018-08-11T02:00:17.429Z,2.17
2018-08-11T02:02:46.263Z,1.90
2018-08-11T02:05:14.761Z,1.60
2018-08-11T02:07:43.989Z,1.50
2018-08-11T02:10:15.385Z,1.70
2018-08-11T02:12:44.513Z,2.05
2018-08-11T02:15:13.920Z,1.82
2018-08-11T02:17:42.763Z,1.50
2018-08-11T02:20:13.770Z,1.65
2018-08-11T02:22:43.881Z,1.77
2018-08-11T02:25:12.431Z,2.08
2018-08-11T02:27:41.273Z,1.80
2018-08-11T02:30:12.101Z,2.10
2018-08-11T02:32:41.182Z,2.00
2018-08-11T02:35:10.898Z,1.60
2018-08-11T02:37:39.965Z,1.85
2018-08-11T02:40:10.342Z,2.00
2018-08-11T02:42:38.814Z,1.90
2018-08-11T02:45:08.368Z,2.00
2018-08-11T02:47:37.048Z,2.00
2018-08-11T02:50:07.434Z,1.60
2018-08-11T02:52:36.057Z,1.70
2018-08-11T02:55:04.813Z,1.80
2018-08-11T02:57:33.961Z,1.72
2018-08-11T03:00:02.824Z,1.82
2018-08-11T03:02:31.826Z,2.00
2018-08-11T03:05:00.446Z,2.10
2018-08-11T03:07:29.221Z,2.15
2018-08-11T03:09:58.068Z,1.80
2018-08-11T03:12:26.554Z,2.05
2018-08-11T03:14:55.759Z,2.00
2018-08-11T03:17:24.603Z,1.90
2018-08-11T03:19:53.473Z,1.85
2018-08-11T03:22:22.271Z,1.70
2018-08-11T03:24:51.458Z,2.55
2018-08-11T03:27:22.085Z,1.62
2018-08-11T03:29:51.121Z,1.90
2018-08-11T03:32:19.947Z,2.05
2018-08-11T03:34:48.778Z,2.33
2018-08-11T03:37:17.952Z,2.00
2018-08-11T03:39:47.185Z,1.90
2018-08-11T03:42:15.704Z,1.62
2018-08-11T03:44:44.558Z,2.10
2018-08-11T03:47:13.996Z,1.82
2018-08-11T03:49:44.149Z,1.85
2018-08-11T03:52:13.688Z,2.10
2018-08-11T03:54:42.510Z,1.90
2018-08-11T03:57:11.001Z,2.40
2018-08-11T03:59:39.501Z,1.85
2018-08-11T04:02:07.995Z,1.67
2018-08-11T04:04:37.841Z,2.15
2018-08-11T04:07:06.880Z,2.75
2018-08-11T04:09:35.509Z,2.15
2018-08-11T04:12:05.333Z,1.80
2018-08-11T04:14:35.161Z,2.70
2018-08-11T04:17:03.632Z,2.08
2018-08-11T04:19:32.133Z,2.92
2018-08-11T04:22:00.933Z,2.83
2018-08-11T04:24:29.659Z,2.20
2018-08-11T04:26:58.144Z,1.90
2018-08-11T04:29:27.600Z,1.80
2018-08-11T04:31:56.654Z,1.87
2018-08-11T04:34:25.462Z,1.90
2018-08-11T04:36:53.952Z,2.22
2018-08-11T04:39:22.446Z,2.15
2018-08-11T04:41:51.634Z,2.00
2018-08-11T04:44:21.131Z,1.90
2018-08-11T04:46:50.282Z,2.22
2018-08-11T04:49:19.744Z,2.22
2018-08-11T04:51:48.238Z,3.17
2018-08-11T04:54:16.740Z,1.95
2018-08-11T05:03:44.232Z,1.62
2018-08-11T05:06:13.061Z,2.15
2018-08-11T05:08:41.800Z,1.70
2018-08-11T05:11:10.632Z,2.10
2018-08-11T05:13:39.453Z,1.40
2018-08-11T05:16:07.952Z,1.90
2018-08-11T05:25:37.166Z,1.37
2018-08-11T05:28:07.002Z,1.92
2018-08-11T05:30:36.185Z,1.80
2018-08-11T05:33:05.941Z,2.35
2018-08-11T05:35:34.805Z,1.77
2018-08-11T05:38:03.309Z,2.00
2018-08-11T05:40:32.152Z,2.00
2018-08-11T05:43:01.015Z,1.60
2018-08-11T05:45:29.520Z,2.40
2018-08-11T05:47:58.394Z,1.77
2018-08-11T05:50:26.925Z,1.98
2018-08-11T05:52:56.937Z,1.85
2018-08-11T05:55:25.777Z,1.98
2018-08-11T05:57:54.621Z,1.85
2018-08-11T06:00:34.363Z,2.27
2018-08-11T06:03:17.664Z,2.55
2018-08-11T06:05:47.928Z,1.65
2018-08-11T06:08:18.417Z,2.37
2018-08-11T06:10:47.997Z,1.87
2018-08-11T06:13:34.957Z,2.10
2018-08-11T06:16:03.492Z,1.92
2018-08-11T06:18:32.309Z,1.90
2018-08-11T06:21:00.854Z,2.00
2018-08-11T06:23:30.377Z,1.80
2018-08-11T06:25:59.549Z,1.70
2018-08-11T06:28:28.368Z,2.00
2018-08-11T06:30:57.734Z,1.67
2018-08-11T06:33:26.608Z,1.70
2018-08-11T06:35:56.427Z,1.70
2018-08-11T06:42:02.831Z,1.90
2018-08-11T06:44:31.694Z,1.80
2018-08-11T06:47:01.047Z,1.72
2018-08-11T06:49:29.521Z,1.95
2018-08-11T06:51:58.336Z,1.87
2018-08-11T06:54:27.198Z,1.85
2018-08-11T06:56:55.730Z,2.20
2018-08-11T06:59:24.561Z,2.02
2018-08-11T07:01:53.053Z,2.17
2018-08-11T07:04:21.673Z,1.80
2018-08-11T07:06:50.642Z,1.50
2018-08-11T07:09:20.134Z,1.95
2018-08-11T07:11:49.825Z,1.70
2018-08-11T07:14:18.847Z,1.77
2018-08-11T07:16:48.390Z,2.15
2018-08-11T07:19:17.211Z,2.15
2018-08-11T07:21:46.877Z,1.62
2018-08-11T07:24:15.812Z,1.75
2018-08-11T07:26:44.335Z,1.80
2018-08-11T07:29:13.385Z,1.50
2018-08-11T07:31:42.226Z,1.72
2018-08-11T07:34:11.924Z,1.72
2018-08-11T07:36:40.500Z,1.80
2018-08-11T07:39:10.577Z,1.80
2018-08-11T07:41:39.828Z,1.85
2018-08-11T07:44:08.332Z,1.62
2018-08-11T07:46:37.181Z,1.60
2018-08-11T07:49:07.061Z,1.70
2018-08-11T07:51:36.347Z,1.52
2018-08-11T07:54:05.182Z,1.35
2018-08-11T07:56:37.231Z,1.60
2018-08-11T07:59:05.741Z,1.25
2018-08-11T08:01:34.538Z,1.70
2018-08-11T08:04:03.073Z,1.52
2018-08-11T08:06:31.904Z,1.50
2018-08-11T08:09:01.137Z,1.42
2018-08-11T08:11:30.537Z,1.20
2018-08-11T08:14:00.159Z,1.60
2018-08-11T08:16:30.429Z,1.70
2018-08-11T08:19:00.683Z,1.20
2018-08-11T08:21:29.187Z,1.20
2018-08-11T08:23:58.020Z,1.50
2018-08-11T08:26:27.083Z,1.25
2018-08-11T08:28:56.979Z,1.52
2018-08-11T08:31:26.538Z,1.23
2018-08-11T08:33:55.373Z,1.30
2018-08-11T08:36:23.738Z,1.13
2018-08-11T08:38:52.568Z,1.52
2018-08-11T08:41:21.109Z,1.87
2018-08-11T08:43:50.161Z,1.42
2018-08-11T08:46:18.446Z,1.27
2018-08-11T08:48:46.890Z,1.40
2018-08-11T08:51:15.527Z,1.80
2018-08-11T08:53:44.673Z,1.40
2018-08-11T08:56:13.184Z,1.47
2018-08-11T08:58:42.031Z,1.40
2018-08-11T09:01:10.882Z,1.27
2018-08-11T09:03:40.073Z,1.27
2018-08-11T09:06:11.026Z,1.12
2018-08-11T09:08:42.437Z,1.45
2018-08-11T09:11:13.810Z,0.90
2018-08-11T09:13:47.794Z,1.22
2018-08-11T09:16:16.632Z,1.00
2018-08-11T09:18:45.889Z,1.00
2018-08-11T09:21:14.734Z,1.30
2018-08-11T09:23:43.421Z,1.30
2018-08-11T09:26:11.982Z,1.10
2018-08-11T09:28:41.205Z,1.17
2018-08-11T09:31:09.699Z,1.07
2018-08-11T09:33:38.285Z,1.07
2018-08-11T09:36:07.037Z,1.03
2018-08-11T09:38:36.125Z,1.00
2018-08-11T09:41:04.396Z,1.37
2018-08-11T09:43:33.140Z,1.30
2018-08-11T09:46:14.343Z,1.10
2018-08-11T09:48:43.430Z,1.07
2018-08-11T09:51:12.508Z,1.07
2018-08-11T09:53:41.118Z,1.70
2018-08-11T09:56:10.505Z,1.23
2018-08-11T09:58:39.070Z,1.00
2018-08-11T10:01:13.409Z,1.30
2018-08-11T10:03:41.642Z,1.00
2018-08-11T10:06:10.244Z,0.83
2018-08-11T10:08:39.784Z,1.20
2018-08-11T10:11:08.135Z,1.13
2018-08-11T10:13:37.321Z,0.87
2018-08-11T10:16:05.545Z,1.00
2018-08-11T10:18:34.179Z,1.30
2018-08-11T10:21:02.912Z,1.10
2018-08-11T10:23:31.824Z,1.10
2018-08-11T10:26:03.142Z,1.17
2018-08-11T10:28:32.341Z,1.93
2018-08-11T10:31:00.953Z,0.80
2018-08-11T10:33:29.856Z,1.20
2018-08-11T10:35:58.379Z,0.90
2018-08-11T10:38:27.319Z,1.10
2018-08-11T10:40:55.563Z,0.90
2018-08-11T10:43:26.963Z,1.50
2018-08-11T10:45:55.524Z,1.00
2018-08-11T10:48:23.744Z,1.30
2018-08-11T10:50:52.802Z,1.20
2018-08-11T10:53:21.027Z,1.47
2018-08-11T10:55:49.619Z,1.17
2018-08-11T10:58:23.858Z,0.80
2018-08-11T11:00:56.740Z,1.07
2018-08-11T11:03:26.665Z,1.30
2018-08-11T11:05:54.899Z,1.30
2018-08-11T11:08:24.388Z,1.20
2018-08-11T11:10:54.033Z,1.10
2018-08-11T11:13:22.926Z,0.93
2018-08-11T11:15:51.492Z,1.27
2018-08-11T11:18:20.061Z,1.30
2018-08-11T11:20:48.491Z,1.03
2018-08-11T11:23:18.712Z,0.87
2018-08-11T11:25:47.272Z,0.80
2018-08-11T11:28:17.981Z,1.13
2018-08-11T11:30:46.866Z,0.90
2018-08-11T11:33:15.383Z,0.90
2018-08-11T11:35:43.952Z,1.03
2018-08-11T11:38:12.259Z,1.10
2018-08-11T11:40:41.081Z,1.10
2018-08-11T11:43:10.413Z,1.00
2018-08-11T11:45:38.957Z,1.37
2018-08-11T11:48:07.883Z,1.30
2018-08-11T11:50:36.116Z,1.00
2018-08-11T11:53:11.923Z,1.00
2018-08-11T11:55:40.550Z,1.00
2018-08-11T11:58:10.310Z,1.30
2018-08-11T12:00:38.512Z,0.90
2018-08-11T12:03:07.751Z,0.90
2018-08-11T12:05:36.300Z,1.60
2018-08-11T12:08:04.553Z,1.40
2018-08-11T12:10:33.094Z,1.10
2018-08-11T12:14:25.892Z,0.80
2018-08-11T12:16:54.101Z,0.90
2018-08-11T12:19:22.664Z,1.20
2018-08-11T12:21:52.837Z,1.23
2018-08-11T12:24:25.986Z,1.10
2018-08-11T12:26:54.569Z,1.40
2018-08-11T12:29:23.150Z,1.00
2018-08-11T12:31:52.260Z,1.13
2018-08-11T12:34:21.985Z,1.00
2018-08-11T12:36:50.248Z,0.93
2018-08-11T12:39:18.622Z,1.50
2018-08-11T12:41:46.849Z,1.00
2018-08-11T12:44:15.738Z,1.10
2018-08-11T12:46:45.067Z,1.00
2018-08-11T13:07:41.796Z,0.80
2018-08-11T13:19:16.010Z,1.10
2018-08-11T13:21:45.449Z,1.10
2018-08-11T13:24:14.002Z,1.20
2018-08-11T13:26:42.229Z,1.00
2018-08-11T13:29:11.024Z,1.00
2018-08-11T13:31:39.610Z,1.37
2018-08-11T13:34:07.849Z,1.30
2018-08-11T13:36:36.090Z,1.27
2018-08-11T13:39:06.929Z,1.40
2018-08-11T13:41:40.306Z,1.20
2018-08-11T13:44:08.885Z,1.30
2018-08-11T13:46:37.899Z,1.30
2018-08-11T13:49:06.378Z,1.03
2018-08-11T13:51:34.973Z,1.50
2018-08-11T13:54:03.662Z,1.30
2018-08-11T13:56:32.557Z,1.20
2018-08-11T13:59:00.802Z,1.50
2018-08-11T14:01:29.089Z,1.30
2018-08-11T14:03:57.762Z,1.83
2018-08-11T14:06:26.920Z,1.53
2018-08-11T14:08:55.157Z,1.13
2018-08-11T14:11:24.110Z,1.40
2018-08-11T14:13:52.382Z,1.07
2018-08-11T14:16:21.842Z,1.20
2018-08-11T14:18:50.090Z,1.47
2018-08-11T14:21:18.668Z,1.17
2018-08-11T14:23:46.939Z,1.40
2018-08-11T14:26:15.506Z,1.67
2018-08-11T14:28:44.418Z,1.37
2018-08-11T14:31:12.981Z,1.00
2018-08-11T14:33:41.909Z,1.23
2018-08-11T14:36:10.905Z,0.87
2018-08-11T14:38:39.184Z,1.00
2018-08-11T14:41:07.524Z,0.90
2018-08-11T14:43:35.735Z,1.10
2018-08-11T14:46:03.972Z,0.83
2018-08-11T14:48:32.206Z,1.27
2018-08-11T14:51:01.105Z,0.77
2018-08-11T14:53:29.913Z,0.67
2018-08-11T14:55:58.477Z,1.00
2018-08-11T15:01:17.827Z,1.17
2018-08-11T15:03:46.613Z,1.00
2018-08-11T15:06:15.186Z,1.00
2018-08-11T15:08:43.413Z,1.00
2018-08-11T15:11:11.972Z,1.00
2018-08-11T15:13:40.591Z,0.80
2018-08-11T15:16:08.845Z,1.43
2018-08-11T15:18:37.252Z,0.80
2018-08-11T15:21:05.492Z,1.07
2018-08-11T15:23:33.770Z,1.00
2018-08-11T15:26:02.681Z,1.30
2018-08-11T15:28:31.254Z,1.07
2018-08-11T15:30:59.821Z,0.90
2018-08-11T15:33:28.466Z,1.23
2018-08-11T15:35:57.169Z,1.37
2018-08-11T15:38:26.289Z,1.00
2018-08-11T15:40:54.964Z,1.30
2018-08-11T15:43:23.522Z,1.10
2018-08-11T15:45:51.754Z,1.20
2018-08-11T15:48:20.645Z,1.03
2018-08-11T15:50:48.933Z,0.70
2018-08-11T15:53:17.582Z,1.23
2018-08-11T15:55:46.516Z,1.20
2018-08-11T15:58:14.745Z,1.20
2018-08-11T16:00:42.981Z,1.10
2018-08-11T16:03:11.642Z,1.50
2018-08-11T16:05:40.341Z,0.90
2018-08-11T16:08:08.906Z,1.13
2018-08-11T16:10:37.225Z,1.00
2018-08-11T16:13:05.751Z,1.20
2018-08-11T16:15:34.331Z,1.10
2018-08-11T16:18:02.619Z,1.00
2018-08-11T16:20:31.185Z,1.10
2018-08-11T16:23:00.557Z,1.97
2018-08-11T16:25:29.133Z,1.43
2018-08-11T16:27:57.660Z,1.00
2018-08-11T16:30:26.262Z,1.30
2018-08-11T16:32:54.824Z,1.30
2018-08-11T16:35:23.375Z,1.00
2018-08-11T16:37:51.932Z,1.10
2018-08-11T16:40:20.832Z,1.03
2018-08-11T16:42:49.390Z,1.30
2018-08-11T16:45:18.086Z,1.33
2018-08-11T16:47:46.318Z,1.23
2018-08-11T16:50:14.963Z,1.17
2018-08-11T16:52:43.281Z,1.10
2018-08-11T16:55:11.554Z,1.23
2018-08-11T16:57:39.788Z,1.10
2018-08-11T17:00:11.295Z,1.77
2018-08-11T17:02:39.668Z,1.30
2018-08-11T17:05:08.350Z,0.93
2018-08-11T17:07:37.463Z,1.27
2018-08-11T17:10:07.337Z,1.30
2018-08-11T17:12:35.901Z,1.20
2018-08-11T17:15:04.145Z,1.40
2018-08-11T17:17:32.392Z,1.37
2018-08-11T17:20:01.361Z,1.30
2018-08-11T17:22:29.634Z,1.30
2018-08-11T17:24:59.212Z,1.13
2018-08-11T17:27:28.032Z,1.00
2018-08-11T17:29:56.710Z,1.50
2018-08-11T17:32:25.439Z,1.53
2018-08-11T17:34:54.584Z,1.77
2018-08-11T17:37:22.856Z,1.20
2018-08-11T17:39:52.757Z,1.00
2018-08-11T17:42:21.017Z,1.50
2018-08-11T17:44:50.729Z,1.67
2018-08-11T17:47:18.993Z,1.50
2018-08-11T17:49:47.240Z,1.27
2018-08-11T17:52:15.621Z,1.57
2018-08-11T17:54:45.134Z,1.63
2018-08-11T17:57:13.734Z,1.63
2018-08-11T17:59:42.866Z,1.83
2018-08-11T18:02:11.498Z,1.67
2018-08-11T18:04:40.801Z,1.60
2018-08-11T18:07:09.997Z,1.70
2018-08-11T18:09:40.150Z,1.30
2018-08-11T18:12:08.748Z,1.20
2018-08-11T18:14:37.127Z,1.33
2018-08-11T18:17:05.947Z,1.70
2018-08-11T18:19:34.655Z,1.33
2018-08-11T18:22:03.045Z,1.40
2018-08-11T18:24:31.298Z,1.80
2018-08-11T18:26:59.630Z,1.50
2018-08-11T18:29:28.017Z,1.57
2018-08-11T18:31:56.738Z,2.37
2018-08-11T18:34:27.980Z,1.80
2018-08-11T18:36:57.166Z,1.82
2018-08-11T18:39:25.402Z,2.00
2018-08-11T18:41:53.626Z,2.17
2018-08-11T18:44:22.088Z,2.40
2018-08-11T18:46:51.042Z,2.07
2018-08-11T18:49:19.861Z,2.50
2018-08-11T18:51:48.142Z,2.43
2018-08-11T18:54:16.717Z,2.10
2018-08-11T18:56:44.969Z,2.20
2018-08-11T18:59:13.407Z,2.40
2018-08-11T19:01:42.233Z,2.35
2018-08-11T19:04:10.841Z,2.60
2018-08-11T19:06:40.606Z,2.33
2018-08-11T19:09:12.018Z,2.53
2018-08-11T19:11:41.977Z,2.57
2018-08-11T19:14:11.188Z,2.30
2018-08-11T19:16:41.934Z,2.90
2018-08-11T19:19:10.573Z,2.30
2018-08-11T19:21:39.463Z,2.50
2018-08-11T19:24:08.788Z,2.63
2018-08-11T19:26:37.765Z,3.08
2018-08-11T19:29:06.504Z,3.00
2018-08-11T19:31:35.581Z,2.60
2018-08-11T19:34:04.074Z,2.90
2018-08-11T19:36:32.857Z,2.60
2018-08-11T19:39:01.441Z,2.95
2018-08-11T19:41:30.842Z,3.05
2018-08-11T19:43:59.430Z,2.20
2018-08-11T19:46:28.280Z,2.05
2018-08-11T19:48:57.667Z,2.02
2018-08-11T19:51:26.507Z,2.80
2018-08-11T19:53:55.391Z,2.02
2018-08-11T19:56:24.334Z,1.92
2018-08-11T19:58:52.844Z,2.90
2018-08-11T20:01:21.184Z,2.43
2018-08-11T20:03:50.252Z,2.42
2018-08-11T20:06:18.761Z,2.52
2018-08-11T20:08:47.830Z,2.50
2018-08-11T20:11:16.704Z,2.10
2018-08-11T20:13:45.533Z,2.95
2018-08-11T20:16:14.705Z,2.52
2018-08-11T20:18:43.958Z,2.30
2018-08-11T20:21:12.500Z,2.42
2018-08-11T20:23:40.999Z,2.00
2018-08-11T20:26:09.488Z,2.37
2018-08-11T20:28:37.717Z,2.40
2018-08-11T20:31:06.631Z,2.45
2018-08-11T20:33:35.910Z,2.58
2018-08-11T20:36:04.504Z,2.55
2018-08-11T20:38:33.017Z,3.02
2018-08-11T20:41:01.853Z,2.10
2018-08-11T20:43:30.837Z,2.67
2018-08-11T20:45:59.696Z,2.58
2018-08-11T20:48:28.515Z,2.67
2018-08-11T20:50:57.370Z,3.10
2018-08-11T20:53:25.600Z,3.20
2018-08-11T20:55:54.433Z,3.15
2018-08-11T20:58:23.657Z,3.17
2018-08-11T21:00:52.489Z,3.77
2018-08-11T21:03:21.310Z,2.80
2018-08-11T21:05:50.113Z,3.00
2018-08-11T21:08:18.616Z,3.00
2018-08-11T21:10:47.478Z,3.30
2018-08-11T21:13:17.519Z,3.75
2018-08-11T21:15:46.018Z,4.83
2018-08-11T21:18:14.960Z,3.62
2018-08-11T21:20:44.545Z,3.80
2018-08-11T21:23:13.406Z,3.90
2018-08-11T21:25:41.944Z,4.15
2018-08-11T21:28:10.777Z,5.22
2018-08-11T21:30:46.461Z,5.15
2018-08-11T21:33:15.298Z,4.85
2018-08-11T21:35:43.796Z,6.72
2018-08-11T21:38:13.349Z,6.22
2018-08-11T21:40:41.890Z,5.55
2018-08-11T21:43:11.563Z,6.15
2018-08-11T21:45:40.756Z,5.55
2018-08-11T21:48:09.251Z,6.72
2018-08-11T21:50:38.100Z,5.85
2018-08-11T21:53:07.261Z,4.95
2018-08-11T21:55:36.425Z,5.10
2018-08-11T21:58:05.277Z,4.90
2018-08-11T22:00:35.368Z,4.62
2018-08-11T22:03:04.590Z,4.70
2018-08-11T22:05:34.159Z,4.80
2018-08-11T22:08:03.171Z,4.25
2018-08-11T22:10:33.453Z,4.20
2018-08-11T22:17:50.508Z,4.10
2018-08-11T22:20:19.885Z,4.10
2018-08-11T22:22:50.822Z,3.98
2018-08-11T22:25:19.670Z,4.05
2018-08-11T22:27:49.458Z,4.83
2018-08-11T22:30:17.949Z,4.72
2018-08-11T22:32:47.148Z,4.58
2018-08-11T22:35:16.662Z,4.00
2018-08-11T22:37:45.642Z,4.72
2018-08-11T22:40:14.166Z,4.70
2018-08-11T22:42:43.000Z,4.20
2018-08-11T22:45:12.690Z,3.87
2018-08-11T22:47:41.506Z,3.85
2018-08-11T22:50:11.758Z,4.58
2018-08-11T22:52:40.603Z,4.83
2018-08-11T22:55:09.905Z,4.53
2018-08-11T22:57:38.386Z,4.35
2018-08-11T23:00:18.190Z,4.85
2018-08-11T23:02:46.679Z,4.85
2018-08-11T23:05:17.683Z,5.00
2018-08-11T23:07:46.561Z,5.72
2018-08-11T23:10:16.872Z,4.03
2018-08-11T23:12:46.341Z,4.70
2018-08-11T23:15:16.612Z,4.03
2018-08-11T23:17:46.392Z,4.37
2018-08-11T23:20:15.761Z,4.20
2018-08-11T23:22:44.398Z,4.35
2018-08-11T23:25:13.938Z,5.50
2018-08-11T23:27:42.764Z,5.15
2018-08-11T23:30:12.673Z,5.12
2018-08-11T23:32:41.984Z,5.55
2018-08-11T23:35:10.776Z,5.20
2018-08-11T23:37:39.934Z,5.53
2018-08-11T23:40:09.307Z,5.80
2018-08-11T23:42:37.941Z,5.53
2018-08-11T23:45:11.605Z,5.75
2018-08-11T23:47:40.937Z,5.12
2018-08-11T23:50:10.253Z,5.17
2018-08-11T23:52:39.136Z,5.15
2018-08-11T23:55:09.726Z,5.67
2018-08-11T23:57:38.531Z,4.70
